Latest Weather Observations for Maryborough

IDQ60801

Issued at 2:02 am EST Wednesday 2 September 2015 (issued every 30 minutes, with the page automatically refreshed every 10 minutes)

About weather observations | Map of weather stations | Latest weather observations for QLD | Other Formats
Station Details ID: 040126 Name: MARYBOROUGH Lat: -25.52 Lon: 152.72 Height: 10.28 m
Data from the previous 72 hours. | See also: Recent months at Maryborough
Date/Time
EST
Temp
°C
App
Temp
°C
Dew
Point
Rel
Hum
%
Delta-T
°C
Wind Press
QNH
hPa
Press
MSL
hPa
Rain
since 9 am
mm
Dir
 
Spd
km/h
Gust
km/h
Spd
kts
Gust
kts
01/03:00pm - - - - - SSE 9 17 5 9 1013.7 1013.7 0.0
01/02:30pm 25.4 20.3 -2.2 16 12.2 WSW 15 22 8 12 1014.0 - 0.0
01/02:00pm 25.5 21.4 -3.0 15 12.4 WNW 9 17 5 9 1014.2 - 0.0
01/01:30pm 25.3 20.1 0.0 19 11.7 NW 17 24 9 13 1014.7 - 0.0
01/01:00pm 24.7 20.3 0.3 20 11.3 W 13 22 7 12 1015.1 - 0.0
01/12:30pm 24.0 19.9 2.2 24 10.4 W 13 22 7 12 1015.7 - 0.0
01/12:00pm 23.2 20.0 3.2 27 9.6 WNW 9 20 5 11 1016.3 1016.3 0.0
01/11:30am 21.5 17.9 3.2 30 8.7 SW 11 19 6 10 1017.0 - 0.0
01/11:00am 21.2 17.1 2.5 29 8.8 W 13 26 7 14 1017.6 - 0.0
01/10:30am 19.8 15.9 3.5 34 7.7 WSW 13 19 7 10 1017.9 - 0.0
01/10:00am 19.4 14.9 4.0 36 7.3 WSW 17 22 9 12 1018.4 - 0.0
01/09:30am 18.0 14.7 4.6 41 6.4 WSW 11 19 6 10 1018.4 - 0.0
01/09:00am 17.5 13.8 4.5 42 6.1 WSW 13 17 7 9 1018.5 1018.5 0.0
01/08:30am 16.5 13.1 3.9 43 5.9 WSW 11 13 6 7 1018.7 - 0.0
01/08:00am 14.9 12.6 5.7 54 4.4 WSW 7 11 4 6 1018.4 - 0.0
01/07:30am 11.8 10.9 9.2 84 1.3 E 4 7 2 4 1018.3 - 0.0
01/07:00am 7.8 6.2 6.3 90 0.7 NNE 4 7 2 4 1018.0 - 0.0
01/06:30am 5.4 4.1 4.2 92 0.5 CALM 0 0 0 0 1017.6 - 0.0
01/06:00am 4.7 3.3 3.4 91 0.5 CALM 0 6 0 3 1017.2 1017.2 0.0
01/05:30am 4.8 2.2 3.1 89 0.7 WSW 6 6 3 3 1016.8 - 0.0
01/05:00am 5.9 4.3 4.4 90 0.6 WSW 2 7 1 4 1016.6 - 0.0
01/04:30am 5.4 3.7 3.9 90 0.6 WSW 2 7 1 4 1016.5 - 0.0
01/04:00am 5.5 4.2 4.0 90 0.6 CALM 0 0 0 0 1016.4 - 0.0
01/03:30am 6.1 3.6 4.6 90 0.6 WSW 7 9 4 5 1016.5 - 0.0
01/03:00am 5.9 3.4 4.5 91 0.6 WSW 7 9 4 5 1016.6 1016.6 0.0
01/02:30am 6.1 4.3 3.3 82 1.2 WSW 2 6 1 3 1016.4 - 0.0
01/02:00am 7.7 5.5 5.5 86 1.0 WSW 6 7 3 4 1016.8 - 0.0
01/01:30am 7.7 4.9 5.3 85 1.1 WSW 9 11 5 6 1016.8 - 0.0
01/01:00am 7.0 4.6 5.3 89 0.8 W 7 7 4 4 1016.8 - 0.0
01/12:30am 7.8 6.1 5.8 87 0.9 W 4 9 2 5 1016.8 - 0.0
01/12:00am 8.1 7.1 5.6 84 1.1 CALM 0 7 0 4 1016.7 1016.7 0.0
 
Date/Time
EST
Temp
°C
App
Temp
°C
Dew
Point
Rel
Hum
%
Delta-T
°C
Wind Press
QNH
hPa
Press
MSL
hPa
Rain
since 9 am
mm
Dir
 
Spd
km/h
Gust
km/h
Spd
kts
Gust
kts
31/11:30pm 8.4 7.2 4.4 76 1.8 CALM 0 0 0 0 1016.8 - 0.0
31/11:00pm 9.0 7.8 4.8 75 1.9 CALM 0 0 0 0 1016.8 - 0.0
31/10:30pm 9.8 8.4 5.4 74 2.0 W 2 6 1 3 1016.8 - 0.0
31/10:00pm 10.1 8.1 6.4 78 1.7 WSW 6 9 3 5 1016.8 - 0.0
31/09:30pm 10.8 8.3 6.4 74 2.1 WSW 9 11 5 6 1016.4 - 0.0
31/09:00pm 11.1 9.3 8.0 81 1.5 WSW 7 9 4 5 1016.1 1016.1 0.0
31/08:30pm 11.7 10.2 8.4 80 1.6 WSW 6 7 3 4 1015.8 - 0.0
31/08:00pm 11.8 10.1 8.3 79 1.7 SSE 7 9 4 5 1015.4 - 0.0
31/07:30pm 11.7 10.1 7.8 77 1.9 SSW 6 9 3 5 1015.1 - 0.0
31/07:00pm 13.1 11.9 6.5 64 3.2 WNW 2 6 1 3 1014.8 - 0.0
31/06:30pm 15.1 13.5 8.1 63 3.5 WNW 6 7 3 4 1014.4 - 0.0
31/06:00pm 15.4 14.0 7.2 58 4.0 WNW 4 6 2 3 1014.1 1014.1 0.0
31/05:30pm 18.0 15.6 7.1 49 5.5 N 9 11 5 6 1013.8 - 0.0
31/05:00pm 19.5 16.3 6.9 44 6.4 NNE 13 17 7 9 1013.6 - 0.0
31/04:30pm 20.6 17.0 6.9 41 7.0 NNE 15 20 8 11 1013.5 - 0.0
31/04:00pm 22.0 19.1 6.3 36 8.0 NNE 11 20 6 11 1013.4 - 0.0
31/03:30pm 23.8 19.9 1.4 23 10.5 W 11 17 6 9 1013.3 - 0.0
31/03:00pm 24.0 19.2 2.8 25 10.2 WNW 17 26 9 14 1013.4 1013.4 0.0
31/02:30pm 23.2 20.0 3.2 27 9.6 NNW 9 15 5 8 1013.6 - 0.0
31/02:00pm 23.3 20.2 3.8 28 9.5 W 9 17 5 9 1013.8 - 0.0
31/01:30pm 22.6 20.0 4.2 30 9.0 WNW 7 13 4 7 1014.1 - 0.0
31/01:00pm 22.0 19.3 5.8 35 8.1 WSW 9 15 5 8 1014.4 - 0.0
31/12:30pm 21.6 18.5 5.5 35 8.0 SSW 11 17 6 9 1014.6 - 0.0
31/12:00pm 21.2 18.9 5.5 36 7.8 WSW 7 13 4 7 1015.1 1015.1 0.0
31/11:30am 20.8 17.7 5.6 37 7.5 S 11 20 6 11 1015.4 - 0.0
31/11:00am 20.0 16.7 4.5 36 7.5 SW 11 17 6 9 1015.8 - 0.0
31/10:30am 20.3 16.7 5.1 37 7.4 SSW 13 20 7 11 1016.2 - 0.0
31/10:00am 19.1 15.4 4.5 38 7.0 WSW 13 19 7 10 1016.5 - 0.0
31/09:30am 17.9 14.1 3.8 39 6.6 WSW 13 22 7 12 1016.8 - 0.0
31/09:00am 16.9 13.0 5.2 46 5.6 WSW 15 20 8 11 1017.1 1017.1 0.2
31/08:30am 15.9 11.2 5.2 49 5.1 WSW 19 22 10 12 1017.1 - 0.2
31/08:00am 14.5 9.7 4.5 51 4.6 WSW 19 24 10 13 1016.8 - 0.2
31/07:30am 12.9 8.8 4.3 56 3.9 WSW 15 20 8 11 1016.8 - 0.2
31/07:00am 10.4 8.3 6.7 78 1.7 W 7 11 4 6 1016.7 - 0.2
31/06:30am 6.1 4.5 4.6 90 0.6 WSW 2 7 1 4 1016.5 - 0.2
31/06:00am 6.4 3.9 5.0 91 0.6 W 7 9 4 5 1016.3 1016.3 0.2
31/05:30am 5.5 4.1 3.8 89 0.7 CALM 0 0 0 0 1015.8 - 0.2
31/05:00am 6.0 4.7 4.3 89 0.7 CALM 0 0 0 0 1015.7 - 0.2
31/04:30am 6.6 5.3 4.3 85 1.0 CALM 0 0 0 0 1015.7 - 0.2
31/04:00am 7.7 5.2 4.5 80 1.4 W 7 9 4 5 1015.7 - 0.2
31/03:30am 9.1 6.6 4.9 75 1.9 WNW 7 11 4 6 1015.7 - 0.2
31/03:00am 9.0 6.4 4.2 72 2.1 WNW 7 9 4 5 1016.1 1016.1 0.2
31/02:30am 9.3 7.4 4.9 74 2.0 WNW 4 7 2 4 1016.4 - 0.2
31/02:00am 10.5 8.0 4.0 64 2.9 WNW 6 15 3 8 1016.7 - 0.2
31/01:30am 11.6 8.3 4.3 61 3.3 WNW 11 13 6 7 1017.0 - 0.2
31/01:00am 12.6 9.3 4.8 59 3.6 W 11 13 6 7 1017.1 - 0.2
31/12:30am 13.8 9.8 4.7 54 4.2 WSW 15 19 8 10 1017.2 - 0.2
31/12:00am 13.4 10.2 5.1 57 3.9 WSW 11 13 6 7 1017.3 1017.3 0.2
 
Date/Time
EST
Temp
°C
App
Temp
°C
Dew
Point
Rel
Hum
%
Delta-T
°C
Wind Press
QNH
hPa
Press
MSL
hPa
Rain
since 9 am
mm
Dir
 
Spd
km/h
Gust
km/h
Spd
kts
Gust
kts
30/11:30pm 13.8 10.2 4.9 55 4.1 WSW 13 15 7 8 1017.3 - 0.2
30/11:00pm 14.3 11.1 5.1 54 4.3 SW 11 15 6 8 1017.4 - 0.2
30/10:30pm 15.1 11.1 5.0 51 4.7 SW 15 22 8 12 1017.4 - 0.2
30/10:00pm 15.5 11.5 4.8 49 5.0 SW 15 19 8 10 1017.3 - 0.2
30/09:30pm 16.6 12.1 4.3 44 5.8 SW 17 24 9 13 1017.1 - 0.2
30/09:00pm 16.3 12.3 5.0 47 5.4 SW 15 19 8 10 1017.0 1017.0 0.2
30/08:30pm 16.3 12.8 5.3 48 5.3 SW 13 17 7 9 1016.7 - 0.2
30/08:00pm 16.8 13.0 5.7 48 5.4 SW 15 19 8 10 1016.5 - 0.2
30/07:30pm 16.9 13.9 6.1 49 5.3 SW 11 13 6 7 1016.2 - 0.2
30/07:00pm 17.2 14.7 6.7 50 5.2 WSW 9 11 5 6 1015.7 - 0.2
30/06:30pm 17.5 14.9 6.1 47 5.6 SW 9 11 5 6 1015.2 - 0.2
30/06:00pm 19.5 16.2 6.3 42 6.6 SW 13 15 7 8 1014.8 1014.8 0.2
30/05:30pm 20.7 17.4 6.3 39 7.2 SW 13 17 7 9 1014.5 - 0.2
30/05:00pm 22.2 17.9 6.8 37 7.9 WSW 19 26 10 14 1014.0 - 0.2
30/04:30pm 23.0 18.4 6.7 35 8.4 WSW 20 28 11 15 1013.7 - 0.2
30/04:00pm 23.6 20.4 8.5 38 8.0 WSW 15 24 8 13 1013.7 - 0.2
30/03:30pm 23.6 19.9 8.1 37 8.2 WSW 17 22 9 12 1013.7 - 0.2
30/03:00pm 22.5 19.8 9.0 42 7.2 SW 13 19 7 10 1013.8 1013.8 0.2
30/02:30pm 23.2 20.2 10.6 45 7.0 SW 17 24 9 13 1014.2 - 0.2
30/02:00pm 22.3 20.4 11.7 51 5.9 WSW 13 19 7 10 1014.5 - 0.2
30/01:30pm 22.3 19.3 12.0 52 5.8 W 19 28 10 15 1014.8 - 0.2
30/01:00pm 21.7 19.2 12.3 55 5.3 W 17 24 9 13 1015.4 - 0.2
30/12:30pm 21.4 19.0 12.5 57 5.0 SW 17 26 9 14 1015.9 - 0.2
30/12:00pm 20.6 18.1 12.3 59 4.7 SW 17 26 9 14 1016.4 1016.4 0.2
30/11:30am 19.1 17.3 13.3 69 3.3 W 15 20 8 11 1017.0 - 0.2
30/11:00am 18.4 16.7 12.6 69 3.2 WSW 13 19 7 10 1017.5 - 0.2
30/10:30am 18.2 16.8 13.5 74 2.7 SW 13 19 7 10 1017.6 - 0.2
30/10:00am 17.8 16.3 14.1 79 2.1 WSW 15 20 8 11 1017.9 - 0.0
30/09:30am 17.1 16.6 13.8 81 1.9 WSW 9 15 5 8 1018.1 - 0.0
30/09:06am 16.8 14.8 13.9 83 1.6 W 17 22 9 12 1018.5 - 0.0
30/09:00am 17.0 15.3 14.6 86 1.4 W 17 22 9 12 1018.6 1018.6 19.6
30/08:30am 16.6 15.0 15.0 90 0.9 SW 17 22 9 12 1018.5 - 19.6
30/08:00am 16.4 15.1 14.8 90 0.9 WSW 15 20 8 11 1018.2 - 19.6
30/07:30am 16.0 15.5 14.9 93 0.6 WSW 11 17 6 9 1017.7 - 19.6
30/07:00am 15.7 15.1 14.7 94 0.6 WSW 11 15 6 8 1017.8 - 19.6
30/06:30am 15.6 15.5 15.0 96 0.3 WSW 9 13 5 7 1017.6 - 19.6
30/06:00am 15.7 15.3 15.1 96 0.3 W 11 15 6 8 1017.3 1017.3 19.6
30/05:48am 15.8 16.2 15.3 97 0.3 W 7 9 4 5 1017.2 - 19.6
30/05:30am 15.6 15.9 15.1 97 0.3 W 7 11 4 6 1017.2 - 19.6
30/05:00am 15.6 15.6 15.1 97 0.3 W 9 13 5 7 1016.7 - 19.6
30/04:35am 15.6 16.1 15.1 97 0.3 WSW 6 7 3 4 1016.1 - 19.6
30/04:30am 15.6 16.1 15.1 97 0.3 WSW 6 7 3 4 1016.1 - 19.6
30/04:00am 15.7 16.3 15.2 97 0.3 WSW 6 7 3 4 1016.4 - 19.2
30/03:34am 15.8 16.2 15.3 97 0.3 WSW 7 9 4 5 1017.1 - 18.8
30/03:30am 15.8 16.4 15.3 97 0.3 WSW 6 9 3 5 1017.1 - 18.8
30/03:00am 15.8 16.7 15.2 96 0.3 WSW 4 7 2 4 1017.6 1017.6 17.8
30/02:55am 15.9 17.3 15.3 96 0.3 WSW 2 7 1 4 1017.7 - 17.8
30/02:41am 16.0 16.5 15.5 97 0.3 WSW 7 9 4 5 1017.7 - 17.6
30/02:30am 15.9 16.3 15.3 96 0.3 WSW 7 9 4 5 1018.0 - 17.4

Other Formats:

Comma delimited format used in spreadsheet applications
http://www.bom.gov.au/fwo/IDQ60801/IDQ60801.94567.axf

JavaScript Object Notation format (JSON) in row-major order
http://www.bom.gov.au/fwo/IDQ60801/IDQ60801.94567.json